Decoded Metar for LFBG (COGNAC in FRANCE) (IATA:CNG) | Meteo·Mobile Aviation Weather
aviador You're here:

LFBG Decoded Metar

COGNAC in FRANCE
Report Time2018-11-18 06:00:00
UTC Time2018-11-18 06:25:15
Flight Rules vfr VFR
Wind060° at 09 kt
W.Decomp.*RWY 05: 8.8 kt HW 1.7 kt RCW
RWY 08: 8.5 kt HW 2.9 kt LCW
W.Rank060° ranks 26
Current wind is above 060° avg. (5.1)
Visibility9999 m
Phenomena:N/A
Clouds:N/A
Expected CloudBase > 1,200 ft AGL from Temp-Dew spread
CeilingNone
Temp07°C (ISA -8)
Dew Point04°C (81% RH)
AAT2.4°C
QNH1014 hPa
Density Alt-758 ft
Elevation102 ft
Report Wrong Elevation
Raw Report
LFBG 180600Z AUTO 06009KT CAVOK 07/04 Q1014=

Extra information for LFBG:More info

Metar Taf Metar & Taf Last 4 Metars F.Rules Stats Wind Profile Meteogram Temp Stats Airport Information Weather charts Add Link Nearby VenuesMetar ALERT Operation Metar Decoded Social comments